Time;durP1;ratioP1;P1;durP2;ratioP2;P2;SDS_P1;SDS_P2;PMS_P1;PMS_P2;Temp;Humidity;BMP_temperature;BMP_pressure;BME280_temperature;BME280_humidity;BME280_pressure;Samples;Min_cycle;Max_cycle;Signal;HPM_P1;HPM_P2
2023/11/24 00:02:22;;;;;;;7.80;1.60;;;;;;;;;;4984803;28;20038;-79
2023/11/24 00:04:47;;;;;;;9.10;1.13;;;;;;;;;;4989976;28;20118;-79
2023/11/24 00:07:12;;;;;;;7.45;1.30;;;;;;;;;;4999334;28;20100;-78
2023/11/24 00:09:38;;;;;;;6.25;0.98;;;;;;;;;;4986717;28;20500;-79
2023/11/24 00:12:03;;;;;;;6.68;1.38;;;;;;;;;;4989836;28;20035;-79
2023/11/24 00:14:28;;;;;;;4.13;0.93;;;;;;;;;;4990914;28;20110;-78
2023/11/24 00:16:53;;;;;;;7.05;1.55;;;;;;;;;;4987683;28;20034;-79
2023/11/24 00:19:19;;;;;;;3.88;0.80;;;;;;;;;;4985898;28;20034;-78
2023/11/24 00:21:46;;;;;;;7.53;1.02;;;;;;;;;;4991600;28;20079;-79
2023/11/24 00:24:12;;;;;;;5.82;1.05;;;;;;;;;;4997565;28;20922;-79
2023/11/24 00:26:37;;;;;;;6.80;1.40;;;;;;;;;;4993954;28;20050;-79
2023/11/24 00:29:02;;;;;;;8.38;0.98;;;;;;;;;;4998118;28;20444;-78
2023/11/24 00:31:28;;;;;;;5.43;1.27;;;;;;;;;;4999237;28;20039;-78
2023/11/24 00:33:53;;;;;;;4.53;0.70;;;;;;;;;;4998701;28;20025;-77
2023/11/24 00:36:19;;;;;;;8.48;1.10;;;;;;;;;;4988956;28;20437;-78
2023/11/24 00:38:44;;;;;;;10.48;1.40;;;;;;;;;;4985697;28;20026;-78
2023/11/24 00:41:09;;;;;;;6.25;1.23;;;;;;;;;;4982725;28;20402;-78
2023/11/24 00:43:36;;;;;;;8.88;1.50;;;;;;;;;;4983424;28;20505;-78
2023/11/24 00:46:01;;;;;;;9.73;1.60;;;;;;;;;;4984006;28;20023;-78
2023/11/24 00:48:28;;;;;;;10.60;1.40;;;;;;;;;;4963192;28;20383;-78
2023/11/24 00:50:53;;;;;;;7.75;1.50;;;;;;;;;;4982919;28;20085;-78
2023/11/24 00:53:18;;;;;;;6.65;0.95;;;;;;;;;;4981892;28;20470;-78
2023/11/24 00:55:43;;;;;;;10.90;1.73;;;;;;;;;;4986290;28;20026;-78
2023/11/24 00:58:09;;;;;;;9.00;1.25;;;;;;;;;;4983386;28;20057;-78
2023/11/24 01:00:34;;;;;;;9.95;1.73;;;;;;;;;;4982345;28;20499;-79
2023/11/24 01:02:59;;;;;;;8.30;1.10;;;;;;;;;;4984045;28;20391;-79
2023/11/24 01:05:24;;;;;;;12.32;2.03;;;;;;;;;;4987091;28;20027;-78
2023/11/24 01:07:49;;;;;;;6.22;1.13;;;;;;;;;;4997817;28;20087;-78
2023/11/24 01:10:15;;;;;;;7.95;1.55;;;;;;;;;;4982024;28;20079;-79
2023/11/24 01:12:40;;;;;;;8.13;1.30;;;;;;;;;;4982639;28;20408;-78
2023/11/24 01:15:06;;;;;;;12.27;1.80;;;;;;;;;;4985289;28;20057;-78
2023/11/24 01:17:31;;;;;;;6.25;1.52;;;;;;;;;;4982869;28;20035;-79
2023/11/24 01:19:56;;;;;;;6.50;1.30;;;;;;;;;;4982634;28;20109;-79
2023/11/24 01:22:24;;;;;;;7.65;1.30;;;;;;;;;;4999314;28;20035;-78
2023/11/24 01:24:50;;;;;;;6.93;1.10;;;;;;;;;;4986303;28;20038;-78
2023/11/24 01:27:16;;;;;;;14.73;1.88;;;;;;;;;;4986778;28;20039;-79
2023/11/24 01:29:41;;;;;;;6.70;0.98;;;;;;;;;;4984903;28;20093;-78
2023/11/24 01:32:07;;;;;;;5.57;1.45;;;;;;;;;;4981822;28;20051;-78
2023/11/24 01:34:32;;;;;;;6.32;1.05;;;;;;;;;;5007414;28;20030;-78
2023/11/24 01:36:57;;;;;;;8.10;0.98;;;;;;;;;;4984571;28;20030;-78
2023/11/24 01:39:23;;;;;;;6.78;1.27;;;;;;;;;;4985715;28;20035;-78
2023/11/24 01:41:49;;;;;;;8.60;1.38;;;;;;;;;;4984865;28;20030;-78
2023/11/24 01:44:14;;;;;;;7.70;1.23;;;;;;;;;;4982793;28;20042;-78
2023/11/24 01:46:39;;;;;;;8.80;1.30;;;;;;;;;;4984514;28;20030;-78
2023/11/24 01:49:05;;;;;;;7.55;1.20;;;;;;;;;;4985404;28;20046;-78
2023/11/24 01:51:32;;;;;;;14.00;2.72;;;;;;;;;;4984148;28;20529;-78
2023/11/24 01:53:57;;;;;;;12.68;1.35;;;;;;;;;;4983393;28;20378;-78
2023/11/24 01:56:22;;;;;;;9.55;1.40;;;;;;;;;;4987592;28;20031;-78
2023/11/24 01:58:48;;;;;;;12.13;1.63;;;;;;;;;;4981677;28;20022;-78
2023/11/24 02:01:13;;;;;;;11.90;1.77;;;;;;;;;;4980674;28;20033;-78
2023/11/24 02:03:39;;;;;;;9.32;1.50;;;;;;;;;;4982962;28;20025;-78
2023/11/24 02:06:05;;;;;;;15.20;1.80;;;;;;;;;;4981386;28;20564;-78
2023/11/24 02:08:30;;;;;;;7.53;1.27;;;;;;;;;;4980398;28;20061;-78
2023/11/24 02:10:56;;;;;;;7.90;1.48;;;;;;;;;;4984107;28;20401;-78
2023/11/24 02:13:27;;;;;;;7.43;1.60;;;;;;;;;;4980391;28;20080;-78
2023/11/24 02:15:55;;;;;;;7.45;1.38;;;;;;;;;;5003283;28;20026;-79
2023/11/24 02:18:20;;;;;;;11.57;1.77;;;;;;;;;;4987889;28;20037;-79
2023/11/24 02:20:46;;;;;;;12.18;1.45;;;;;;;;;;4983122;28;20038;-79
2023/11/24 02:23:11;;;;;;;9.57;0.98;;;;;;;;;;4983524;28;20056;-79
2023/11/24 02:25:36;;;;;;;8.85;1.63;;;;;;;;;;4992883;28;20084;-79
2023/11/24 02:28:02;;;;;;;9.82;1.42;;;;;;;;;;4985859;28;20034;-79
2023/11/24 02:30:27;;;;;;;10.68;1.27;;;;;;;;;;4988970;28;20053;-79
2023/11/24 02:32:53;;;;;;;10.93;1.98;;;;;;;;;;4986958;28;20018;-79
2023/11/24 02:35:18;;;;;;;9.50;1.73;;;;;;;;;;4992077;28;20392;-79
2023/11/24 02:37:43;;;;;;;8.55;1.55;;;;;;;;;;4982001;28;20262;-78
2023/11/24 02:40:09;;;;;;;9.10;2.05;;;;;;;;;;4980832;28;20034;-78
2023/11/24 02:42:35;;;;;;;12.90;1.55;;;;;;;;;;4972449;28;20041;-78
2023/11/24 02:45:00;;;;;;;8.70;2.40;;;;;;;;;;4998649;28;20054;-78
2023/11/24 02:47:26;;;;;;;9.18;1.60;;;;;;;;;;4983395;28;20027;-79
2023/11/24 02:49:51;;;;;;;8.43;1.88;;;;;;;;;;4989199;28;20093;-78
2023/11/24 02:52:16;;;;;;;8.65;1.50;;;;;;;;;;4983299;28;20027;-78
2023/11/24 02:54:41;;;;;;;10.55;1.27;;;;;;;;;;4988601;28;20044;-79
2023/11/24 02:57:06;;;;;;;8.45;1.60;;;;;;;;;;4980058;28;20038;-77
2023/11/24 02:59:32;;;;;;;9.60;1.35;;;;;;;;;;4981910;28;20035;-78
2023/11/24 03:01:57;;;;;;;9.40;1.40;;;;;;;;;;4979333;28;20033;-77
2023/11/24 03:04:22;;;;;;;8.07;1.77;;;;;;;;;;4988183;28;20169;-78
2023/11/24 03:06:47;;;;;;;11.55;1.98;;;;;;;;;;4983765;28;20492;-77
2023/11/24 03:09:14;;;;;;;9.13;1.80;;;;;;;;;;4983744;28;20031;-78
2023/11/24 03:11:39;;;;;;;6.82;1.42;;;;;;;;;;4978306;28;20030;-77
2023/11/24 03:14:04;;;;;;;9.07;1.40;;;;;;;;;;4969827;28;20117;-77
2023/11/24 03:16:30;;;;;;;7.95;1.20;;;;;;;;;;4993177;28;20027;-77
2023/11/24 03:18:56;;;;;;;10.10;1.85;;;;;;;;;;5013978;28;20114;-78
2023/11/24 03:21:21;;;;;;;4.05;1.05;;;;;;;;;;4978864;28;20467;-77
2023/11/24 03:23:46;;;;;;;12.45;1.70;;;;;;;;;;4986271;28;20034;-77
2023/11/24 03:26:11;;;;;;;8.98;1.92;;;;;;;;;;4997092;28;20031;-77
2023/11/24 03:28:37;;;;;;;9.40;1.52;;;;;;;;;;4975186;28;20491;-77
2023/11/24 03:31:03;;;;;;;9.32;1.30;;;;;;;;;;4980061;28;20030;-77
2023/11/24 03:33:29;;;;;;;11.15;1.75;;;;;;;;;;4979020;28;20026;-77
2023/11/24 03:35:54;;;;;;;8.02;1.58;;;;;;;;;;4985052;28;20033;-77
2023/11/24 03:38:20;;;;;;;7.65;1.42;;;;;;;;;;4984376;28;20039;-77
2023/11/24 03:40:47;;;;;;;11.32;1.33;;;;;;;;;;4991510;28;20079;-78
2023/11/24 03:43:13;;;;;;;9.45;1.70;;;;;;;;;;4979021;28;20041;-78
2023/11/24 03:45:38;;;;;;;7.72;1.58;;;;;;;;;;4964481;28;20118;-77
2023/11/24 03:48:04;;;;;;;7.40;1.65;;;;;;;;;;4980247;28;20125;-78
2023/11/24 03:50:29;;;;;;;11.77;2.05;;;;;;;;;;4976754;28;20087;-77
2023/11/24 03:52:54;;;;;;;10.80;1.60;;;;;;;;;;4983009;28;20506;-77
2023/11/24 03:55:20;;;;;;;8.25;1.42;;;;;;;;;;5000907;28;20053;-78
2023/11/24 03:57:46;;;;;;;10.10;1.58;;;;;;;;;;4980694;28;20376;-78
2023/11/24 04:00:11;;;;;;;13.25;2.28;;;;;;;;;;4980822;28;20035;-77
2023/11/24 04:02:39;;;;;;;14.63;2.17;;;;;;;;;;4979231;28;20035;-77
2023/11/24 04:05:05;;;;;;;23.65;4.03;;;;;;;;;;4996378;28;20072;-78
2023/11/24 04:07:30;;;;;;;10.32;1.50;;;;;;;;;;4998093;28;20034;-78
2023/11/24 04:09:56;;;;;;;12.05;1.80;;;;;;;;;;4977767;28;20068;-77
2023/11/24 04:12:21;;;;;;;11.40;2.05;;;;;;;;;;4978892;28;20035;-78
2023/11/24 04:14:46;;;;;;;10.57;1.80;;;;;;;;;;4979734;28;20025;-78
2023/11/24 04:17:11;;;;;;;11.43;1.73;;;;;;;;;;4980190;28;20121;-77
2023/11/24 04:19:36;;;;;;;10.77;1.77;;;;;;;;;;4981118;28;20022;-79
2023/11/24 04:22:02;;;;;;;11.30;1.70;;;;;;;;;;4994053;28;20296;-79
2023/11/24 04:24:27;;;;;;;12.75;1.52;;;;;;;;;;4984265;28;20046;-79
2023/11/24 04:26:53;;;;;;;8.80;1.92;;;;;;;;;;4985309;28;20514;-79
2023/11/24 04:29:21;;;;;;;14.02;2.33;;;;;;;;;;4981121;28;20495;-79
2023/11/24 04:31:46;;;;;;;11.85;1.50;;;;;;;;;;4982648;28;20494;-78
2023/11/24 04:34:11;;;;;;;11.73;2.45;;;;;;;;;;4976207;28;20039;-79
2023/11/24 04:36:36;;;;;;;10.93;1.85;;;;;;;;;;4981161;28;20034;-79
2023/11/24 04:39:02;;;;;;;11.75;1.92;;;;;;;;;;4994753;28;20033;-78
2023/11/24 04:41:28;;;;;;;13.68;3.65;;;;;;;;;;4979349;28;20034;-78
2023/11/24 04:43:53;;;;;;;7.95;2.03;;;;;;;;;;4981330;28;20034;-78
2023/11/24 04:46:18;;;;;;;15.23;2.15;;;;;;;;;;4996067;28;20023;-79
2023/11/24 04:48:44;;;;;;;9.98;1.33;;;;;;;;;;4981402;28;20056;-79
2023/11/24 04:51:09;;;;;;;9.55;1.98;;;;;;;;;;4968859;28;20027;-79
2023/11/24 04:53:34;;;;;;;10.13;1.50;;;;;;;;;;4995688;28;20490;-80
2023/11/24 04:55:59;;;;;;;21.77;3.92;;;;;;;;;;4987584;28;20026;-80
2023/11/24 04:58:25;;;;;;;13.05;2.08;;;;;;;;;;4980064;28;20047;-80
2023/11/24 05:00:50;;;;;;;11.77;2.35;;;;;;;;;;4982317;28;20414;-79
2023/11/24 05:03:15;;;;;;;8.50;2.03;;;;;;;;;;5001243;28;20059;-80
2023/11/24 05:05:40;;;;;;;11.00;1.88;;;;;;;;;;4994211;28;20391;-80
2023/11/24 05:08:05;;;;;;;11.13;1.85;;;;;;;;;;4985530;28;20037;-79
2023/11/24 05:10:30;;;;;;;16.90;2.40;;;;;;;;;;4984753;28;20046;-79
2023/11/24 05:12:56;;;;;;;13.73;2.17;;;;;;;;;;4990411;28;20030;-79
2023/11/24 05:15:21;;;;;;;19.83;2.25;;;;;;;;;;4998051;28;20370;-80
2023/11/24 05:17:46;;;;;;;9.88;1.83;;;;;;;;;;4973741;28;20027;-79
2023/11/24 05:20:15;;;;;;;13.30;2.30;;;;;;;;;;4995100;28;20038;-79
2023/11/24 05:22:40;;;;;;;12.50;1.85;;;;;;;;;;4987371;28;20038;-78
2023/11/24 05:25:07;;;;;;;10.63;2.00;;;;;;;;;;4991503;28;20046;-78
2023/11/24 05:27:32;;;;;;;17.15;2.05;;;;;;;;;;4982425;28;20636;-79
2023/11/24 05:29:58;;;;;;;10.18;1.67;;;;;;;;;;4982645;28;20113;-78
2023/11/24 05:32:23;;;;;;;11.38;1.75;;;;;;;;;;4977249;28;20039;-78
2023/11/24 05:34:50;;;;;;;17.45;2.67;;;;;;;;;;4976135;28;20028;-78
2023/11/24 05:37:15;;;;;;;9.00;2.17;;;;;;;;;;4973947;28;20035;-78
2023/11/24 05:39:41;;;;;;;10.48;2.30;;;;;;;;;;4978313;28;20457;-78
2023/11/24 05:42:06;;;;;;;16.98;2.42;;;;;;;;;;4985401;28;20074;-78
2023/11/24 05:44:31;;;;;;;13.20;1.75;;;;;;;;;;4989814;28;20113;-78
2023/11/24 05:46:56;;;;;;;8.63;1.77;;;;;;;;;;4978187;28;20039;-77
2023/11/24 05:49:21;;;;;;;11.20;2.15;;;;;;;;;;4976953;28;20038;-78
2023/11/24 05:51:47;;;;;;;8.68;1.80;;;;;;;;;;4973804;28;20050;-78
2023/11/24 05:54:12;;;;;;;6.97;1.10;;;;;;;;;;4972877;28;20559;-78
2023/11/24 05:56:37;;;;;;;13.55;2.17;;;;;;;;;;4995927;28;20083;-79
2023/11/24 05:59:03;;;;;;;8.25;1.55;;;;;;;;;;4974782;28;20042;-78
2023/11/24 06:01:28;;;;;;;4.18;1.05;;;;;;;;;;4984130;28;20058;-78
2023/11/24 06:03:53;;;;;;;9.55;1.23;;;;;;;;;;4985086;28;20034;-78
2023/11/24 06:06:19;;;;;;;11.57;1.88;;;;;;;;;;4997187;28;20414;-79
2023/11/24 06:08:44;;;;;;;9.23;1.50;;;;;;;;;;4987356;28;20058;-84
2023/11/24 06:11:09;;;;;;;5.35;0.82;;;;;;;;;;4990322;28;20035;-81
2023/11/24 06:13:34;;;;;;;6.68;1.13;;;;;;;;;;5003193;28;20078;-85
2023/11/24 06:16:00;;;;;;;5.30;0.65;;;;;;;;;;5015433;28;20029;-82
2023/11/24 06:18:26;;;;;;;3.72;0.55;;;;;;;;;;4991029;28;20037;-81
2023/11/24 06:20:51;;;;;;;6.63;0.85;;;;;;;;;;4995520;28;20375;-84
2023/11/24 06:23:16;;;;;;;4.18;0.68;;;;;;;;;;5017792;28;20107;-84
2023/11/24 06:25:41;;;;;;;7.93;0.82;;;;;;;;;;5016098;28;20083;-81
2023/11/24 06:28:07;;;;;;;6.40;0.93;;;;;;;;;;4989883;28;20050;-81
2023/11/24 06:30:32;;;;;;;6.50;1.20;;;;;;;;;;4984052;28;20113;-79
2023/11/24 06:32:57;;;;;;;4.38;0.80;;;;;;;;;;4980694;28;20034;-79
2023/11/24 06:35:22;;;;;;;3.40;0.80;;;;;;;;;;4987901;28;20065;-80
2023/11/24 06:37:48;;;;;;;6.75;0.90;;;;;;;;;;4988397;28;20031;-80
2023/11/24 06:40:13;;;;;;;8.65;1.20;;;;;;;;;;4982978;28;20026;-80
2023/11/24 06:42:40;;;;;;;2.40;0.65;;;;;;;;;;4985243;28;20027;-80
2023/11/24 06:45:05;;;;;;;6.00;0.82;;;;;;;;;;5000183;28;20122;-80
2023/11/24 06:47:30;;;;;;;4.15;0.63;;;;;;;;;;4990544;28;20065;-79
2023/11/24 07:10:30;;;;;;;5.78;1.13;;;;;;;;;;4986565;28;20022;-79
2023/11/24 07:13:07;;;;;;;4.97;0.98;;;;;;;;;;4988002;28;20021;-80
2023/11/24 07:15:32;;;;;;;4.43;0.95;;;;;;;;;;5005993;28;20034;-79
2023/11/24 07:17:57;;;;;;;6.22;0.77;;;;;;;;;;4988892;28;20030;-80
2023/11/24 07:20:22;;;;;;;2.72;0.52;;;;;;;;;;5007314;28;20042;-80
2023/11/24 07:22:47;;;;;;;4.97;0.73;;;;;;;;;;4997252;28;20042;-80
2023/11/24 07:25:13;;;;;;;3.20;0.60;;;;;;;;;;5022004;28;20091;-80
2023/11/24 07:27:39;;;;;;;6.15;1.02;;;;;;;;;;4992489;28;20026;-79
2023/11/24 07:30:04;;;;;;;4.55;0.85;;;;;;;;;;5008939;28;20431;-79
2023/11/24 07:32:29;;;;;;;4.40;1.38;;;;;;;;;;4988389;28;20115;-80
2023/11/24 07:34:55;;;;;;;3.13;0.80;;;;;;;;;;4989851;28;20026;-80
2023/11/24 07:37:20;;;;;;;8.02;1.00;;;;;;;;;;4998073;28;20066;-80
2023/11/24 07:39:45;;;;;;;3.92;0.68;;;;;;;;;;4989626;28;20159;-80
2023/11/24 07:42:11;;;;;;;4.65;0.88;;;;;;;;;;4995678;28;20034;-80
2023/11/24 07:44:36;;;;;;;4.30;1.02;;;;;;;;;;4990302;28;20098;-80
2023/11/24 07:47:02;;;;;;;8.27;0.95;;;;;;;;;;4993990;28;20410;-80
2023/11/24 07:49:27;;;;;;;4.13;0.75;;;;;;;;;;4986762;28;20041;-80
2023/11/24 07:51:52;;;;;;;5.18;1.08;;;;;;;;;;4982432;28;20037;-79
2023/11/24 07:54:20;;;;;;;5.00;1.20;;;;;;;;;;4990114;28;20023;-80
2023/11/24 07:56:45;;;;;;;4.53;0.77;;;;;;;;;;4998327;28;20034;-79
2023/11/24 07:59:11;;;;;;;5.68;1.73;;;;;;;;;;4987051;28;20088;-79
2023/11/24 08:01:36;;;;;;;6.72;0.70;;;;;;;;;;4996358;28;20522;-79
2023/11/24 08:04:04;;;;;;;5.07;0.80;;;;;;;;;;4986112;28;20035;-79
2023/11/24 08:06:29;;;;;;;3.83;1.10;;;;;;;;;;5002413;28;20436;-79
2023/11/24 08:08:56;;;;;;;1.55;0.40;;;;;;;;;;4992079;28;20110;-79
2023/11/24 08:11:23;;;;;;;2.38;0.63;;;;;;;;;;4989722;28;20422;-79
2023/11/24 08:13:48;;;;;;;3.65;0.60;;;;;;;;;;4983985;28;20521;-79
2023/11/24 08:16:13;;;;;;;2.85;0.40;;;;;;;;;;4987697;28;20311;-79
2023/11/24 08:18:38;;;;;;;2.08;0.30;;;;;;;;;;4986469;28;20026;-79
2023/11/24 08:21:04;;;;;;;1.73;0.57;;;;;;;;;;4984436;28;20046;-79
2023/11/24 08:23:30;;;;;;;3.88;0.40;;;;;;;;;;4988894;28;20042;-79
2023/11/24 08:25:55;;;;;;;4.57;0.50;;;;;;;;;;4992840;28;20034;-79
2023/11/24 08:28:20;;;;;;;4.80;0.60;;;;;;;;;;4984027;28;20092;-79
2023/11/24 08:30:47;;;;;;;5.88;0.88;;;;;;;;;;4990990;28;20023;-79
2023/11/24 08:33:12;;;;;;;3.17;0.50;;;;;;;;;;4980295;28;20058;-79
2023/11/24 08:35:43;;;;;;;4.45;0.57;;;;;;;;;;4994647;28;20654;-79
2023/11/24 08:38:14;;;;;;;2.58;0.40;;;;;;;;;;5000040;28;20042;-79
2023/11/24 08:40:39;;;;;;;4.05;1.55;;;;;;;;;;4993151;28;20500;-78
2023/11/24 08:43:05;;;;;;;6.63;0.80;;;;;;;;;;4988180;28;20076;-79
2023/11/24 08:45:30;;;;;;;2.70;0.50;;;;;;;;;;5023461;28;20035;-78
2023/11/24 08:47:55;;;;;;;3.38;0.70;;;;;;;;;;4987730;28;20092;-78
2023/11/24 08:50:20;;;;;;;3.72;0.77;;;;;;;;;;4996525;28;20030;-79
2023/11/24 08:52:47;;;;;;;3.45;0.60;;;;;;;;;;4993762;28;20367;-79
2023/11/24 08:55:13;;;;;;;1.35;0.40;;;;;;;;;;4992539;28;20107;-79
2023/11/24 08:57:38;;;;;;;2.88;0.90;;;;;;;;;;4992565;28;20054;-79
2023/11/24 09:09:33;;;;;;;3.83;0.52;;;;;;;;;;4991215;28;20668;-79
2023/11/24 09:12:13;;;;;;;5.25;0.63;;;;;;;;;;4957478;28;20799;-78
2023/11/24 09:17:35;;;;;;;6.22;0.93;;;;;;;;;;4967028;28;20019;-79
2023/11/24 09:20:00;;;;;;;6.18;0.80;;;;;;;;;;4963331;28;20027;-78
2023/11/24 09:22:26;;;;;;;5.72;0.85;;;;;;;;;;4964612;28;20071;-79
2023/11/24 09:24:51;;;;;;;3.47;0.70;;;;;;;;;;4958774;28;20031;-79
2023/11/24 09:27:16;;;;;;;4.47;0.80;;;;;;;;;;4972812;28;20046;-79
2023/11/24 09:29:42;;;;;;;7.28;0.82;;;;;;;;;;4961889;28;20023;-78
2023/11/24 09:32:07;;;;;;;8.40;1.27;;;;;;;;;;4961797;28;20036;-79
2023/11/24 09:34:32;;;;;;;4.47;0.85;;;;;;;;;;4972562;28;20032;-78
2023/11/24 09:36:57;;;;;;;3.42;1.02;;;;;;;;;;4967074;28;20022;-78
2023/11/24 09:39:26;;;;;;;3.50;0.68;;;;;;;;;;4966046;28;20039;-79
2023/11/24 09:41:52;;;;;;;3.17;0.75;;;;;;;;;;4961631;28;20027;-78
2023/11/24 09:44:17;;;;;;;5.93;1.00;;;;;;;;;;4968590;28;20534;-79
2023/11/24 09:46:46;;;;;;;5.30;0.88;;;;;;;;;;4965900;28;20548;-78
2023/11/24 09:49:15;;;;;;;8.65;1.20;;;;;;;;;;4961168;28;20031;-79
2023/11/24 09:51:40;;;;;;;4.70;0.90;;;;;;;;;;4966702;28;20038;-78
2023/11/24 09:54:07;;;;;;;3.83;0.73;;;;;;;;;;4969268;28;20034;-78
2023/11/24 09:56:33;;;;;;;6.30;1.40;;;;;;;;;;4960908;28;20099;-78
2023/11/24 09:58:58;;;;;;;3.85;1.00;;;;;;;;;;4966549;28;20054;-78
2023/11/24 10:01:23;;;;;;;5.25;1.33;;;;;;;;;;4947797;28;20039;-78
2023/11/24 10:03:52;;;;;;;4.22;1.30;;;;;;;;;;4960237;28;20046;-78
2023/11/24 10:06:18;;;;;;;6.57;1.20;;;;;;;;;;4962358;28;20031;-78
2023/11/24 10:08:45;;;;;;;9.90;2.17;;;;;;;;;;4963867;28;20034;-79
2023/11/24 10:11:27;;;;;;;6.15;0.85;;;;;;;;;;4960284;28;20118;-78
2023/11/24 10:13:54;;;;;;;7.70;1.75;;;;;;;;;;4964560;28;20034;-79
2023/11/24 10:16:19;;;;;;;6.78;0.85;;;;;;;;;;4962210;28;20050;-79
2023/11/24 10:18:45;;;;;;;5.53;0.90;;;;;;;;;;4963307;28;20031;-78
2023/11/24 10:21:11;;;;;;;6.15;1.05;;;;;;;;;;4962509;28;20071;-78
2023/11/24 10:23:37;;;;;;;5.20;1.10;;;;;;;;;;4956252;28;20054;-78
2023/11/24 10:26:02;;;;;;;4.93;0.98;;;;;;;;;;4959424;28;20035;-79
2023/11/24 10:28:28;;;;;;;6.15;0.80;;;;;;;;;;4962921;28;20442;-78
2023/11/24 10:30:55;;;;;;;3.40;0.65;;;;;;;;;;4958816;28;20503;-79
2023/11/24 10:33:21;;;;;;;6.57;0.68;;;;;;;;;;4977395;28;20035;-78
2023/11/24 10:35:47;;;;;;;6.68;1.20;;;;;;;;;;4963138;28;20031;-78
2023/11/24 10:38:19;;;;;;;4.00;0.80;;;;;;;;;;4961973;28;20039;-79
2023/11/24 10:40:45;;;;;;;4.35;0.85;;;;;;;;;;4965266;28;20034;-79
2023/11/24 10:43:11;;;;;;;4.28;1.02;;;;;;;;;;4960453;28;20650;-79
2023/11/24 10:45:47;;;;;;;3.28;0.63;;;;;;;;;;4961233;28;20395;-78
2023/11/24 10:48:19;;;;;;;7.03;1.33;;;;;;;;;;4966826;28;20061;-78
2023/11/24 10:51:04;;;;;;;7.10;1.40;;;;;;;;;;4964066;28;20022;-79
2023/11/24 10:53:34;;;;;;;7.50;2.45;;;;;;;;;;4961174;28;20065;-79
2023/11/24 10:55:59;;;;;;;4.30;0.90;;;;;;;;;;4964727;28;20442;-78
2023/11/24 10:58:25;;;;;;;7.20;1.10;;;;;;;;;;4961351;28;20035;-79
2023/11/24 11:01:31;;;;;;;3.95;0.95;;;;;;;;;;4968226;28;20039;-79
2023/11/24 11:03:56;;;;;;;8.75;0.90;;;;;;;;;;4959521;28;20042;-79
2023/11/24 11:06:29;;;;;;;5.85;1.05;;;;;;;;;;4959379;28;20043;-78
2023/11/24 11:09:09;;;;;;;6.28;0.60;;;;;;;;;;4963743;28;20427;-78
2023/11/24 11:12:07;;;;;;;4.43;0.70;;;;;;;;;;4960629;28;20534;-78
2023/11/24 11:14:33;;;;;;;5.25;0.82;;;;;;;;;;4958329;28;20039;-78
2023/11/24 11:17:20;;;;;;;9.20;0.80;;;;;;;;;;4959103;28;20031;-78
2023/11/24 11:20:15;;;;;;;3.08;1.25;;;;;;;;;;4964659;28;20042;-77
2023/11/24 11:22:41;;;;;;;5.78;1.13;;;;;;;;;;4962631;28;20133;-78
2023/11/24 11:25:12;;;;;;;4.97;0.93;;;;;;;;;;4963098;28;20034;-78
2023/11/24 11:27:37;;;;;;;4.88;0.73;;;;;;;;;;4964031;28;20436;-77
2023/11/24 11:30:12;;;;;;;5.05;1.30;;;;;;;;;;4958243;28;20050;-78
2023/11/24 11:32:38;;;;;;;7.38;1.70;;;;;;;;;;4963115;28;20492;-78
2023/11/24 11:35:04;;;;;;;4.85;0.85;;;;;;;;;;4970917;28;20041;-78
2023/11/24 11:37:30;;;;;;;9.73;1.25;;;;;;;;;;4961597;28;20049;-77
2023/11/24 11:40:11;;;;;;;5.13;1.00;;;;;;;;;;4964304;28;20031;-76
2023/11/24 11:42:52;;;;;;;6.75;0.98;;;;;;;;;;4966331;28;20055;-77
2023/11/24 11:45:17;;;;;;;3.80;0.73;;;;;;;;;;4962475;28;20039;-77
2023/11/24 11:47:50;;;;;;;7.80;1.63;;;;;;;;;;4965016;28;20422;-78
2023/11/24 11:50:20;;;;;;;4.68;1.00;;;;;;;;;;4961829;28;20069;-75
2023/11/24 11:52:45;;;;;;;7.70;1.05;;;;;;;;;;4959816;28;20035;-77
2023/11/24 11:55:10;;;;;;;3.25;0.85;;;;;;;;;;4973457;28;20039;-77
2023/11/24 11:57:36;;;;;;;5.28;1.20;;;;;;;;;;4955240;28;20102;-76
2023/11/24 12:00:01;;;;;;;3.85;1.17;;;;;;;;;;4961709;28;20395;-79
2023/11/24 12:02:29;;;;;;;9.07;1.48;;;;;;;;;;4956515;28;20429;-78
2023/11/24 12:04:54;;;;;;;5.75;0.95;;;;;;;;;;4963116;28;20030;-78
2023/11/24 12:07:20;;;;;;;3.65;1.10;;;;;;;;;;4962757;28;20038;-78
2023/11/24 12:09:47;;;;;;;5.55;1.30;;;;;;;;;;4963742;28;20057;-79
2023/11/24 12:12:12;;;;;;;5.45;0.90;;;;;;;;;;4976332;28;20110;-79
2023/11/24 12:14:41;;;;;;;4.70;1.50;;;;;;;;;;4959232;28;20051;-79
2023/11/24 12:17:10;;;;;;;7.00;1.10;;;;;;;;;;4966455;28;20047;-78
2023/11/24 12:19:36;;;;;;;4.57;1.08;;;;;;;;;;4970493;28;20039;-78
2023/11/24 12:22:03;;;;;;;6.03;1.45;;;;;;;;;;4971938;28;20031;-79
2023/11/24 12:24:29;;;;;;;5.03;1.10;;;;;;;;;;4964746;28;20415;-78
2023/11/24 12:26:55;;;;;;;7.85;1.25;;;;;;;;;;4962841;28;20054;-77
2023/11/24 12:29:22;;;;;;;5.18;1.27;;;;;;;;;;4967345;28;20380;-78
2023/11/24 12:31:48;;;;;;;6.57;1.75;;;;;;;;;;4964748;28;20035;-78
2023/11/24 12:34:20;;;;;;;4.22;0.80;;;;;;;;;;4968333;28;20038;-78
2023/11/24 12:36:45;;;;;;;4.32;1.30;;;;;;;;;;4971768;28;20098;-78
2023/11/24 12:39:13;;;;;;;6.93;1.08;;;;;;;;;;4965546;28;20466;-78
2023/11/24 12:41:43;;;;;;;8.48;1.35;;;;;;;;;;4968303;28;20093;-77
2023/11/24 12:44:08;;;;;;;6.68;1.55;;;;;;;;;;4968717;28;20085;-79
2023/11/24 12:46:34;;;;;;;4.82;0.90;;;;;;;;;;4966546;28;20043;-79
2023/11/24 12:49:03;;;;;;;4.47;0.90;;;;;;;;;;4970354;28;20043;-78
2023/11/24 12:51:29;;;;;;;7.03;1.52;;;;;;;;;;4965678;28;20125;-79
2023/11/24 12:53:54;;;;;;;4.60;1.27;;;;;;;;;;4965264;28;20058;-78
2023/11/24 12:56:19;;;;;;;8.98;1.23;;;;;;;;;;4967463;28;20031;-78
2023/11/24 12:58:44;;;;;;;6.20;1.25;;;;;;;;;;4966592;28;20031;-78
2023/11/24 13:01:10;;;;;;;5.55;0.73;;;;;;;;;;4964687;28;20066;-78
2023/11/24 13:03:35;;;;;;;4.93;1.58;;;;;;;;;;4963182;28;20039;-78
2023/11/24 13:06:00;;;;;;;5.25;1.00;;;;;;;;;;4967850;28;20392;-78
2023/11/24 13:08:25;;;;;;;4.97;0.82;;;;;;;;;;4968807;28;20039;-78
2023/11/24 13:10:53;;;;;;;1.90;0.70;;;;;;;;;;4968604;28;20031;-77
2023/11/24 13:13:20;;;;;;;2.53;0.60;;;;;;;;;;4962778;28;20121;-78
2023/11/24 13:15:45;;;;;;;2.97;0.90;;;;;;;;;;4960151;28;20069;-78
2023/11/24 13:18:10;;;;;;;6.70;1.20;;;;;;;;;;4950326;28;20045;-78
2023/11/24 13:20:36;;;;;;;3.00;0.95;;;;;;;;;;4966051;28;20160;-78
2023/11/24 13:23:02;;;;;;;3.00;0.93;;;;;;;;;;4962303;28;20028;-78
2023/11/24 13:25:28;;;;;;;2.45;0.77;;;;;;;;;;4977653;28;20042;-78
2023/11/24 13:27:54;;;;;;;4.53;1.30;;;;;;;;;;4968668;28;20042;-77
2023/11/24 13:30:21;;;;;;;4.38;0.95;;;;;;;;;;4968139;28;20073;-78
2023/11/24 13:32:47;;;;;;;3.63;0.98;;;;;;;;;;4969505;28;20557;-78
2023/11/24 13:35:15;;;;;;;3.75;1.17;;;;;;;;;;4963867;28;20035;-78
2023/11/24 13:37:42;;;;;;;3.80;1.20;;;;;;;;;;4967459;28;20109;-78
2023/11/24 13:40:11;;;;;;;4.90;1.20;;;;;;;;;;4964637;28;20584;-79
2023/11/24 13:42:37;;;;;;;5.18;1.38;;;;;;;;;;4967816;28;20047;-79
2023/11/24 13:45:02;;;;;;;6.43;1.20;;;;;;;;;;4965962;28;20031;-79
2023/11/24 13:47:27;;;;;;;6.85;1.05;;;;;;;;;;4965825;28;20036;-79
2023/11/24 13:49:53;;;;;;;7.28;1.27;;;;;;;;;;4965118;28;20031;-79
2023/11/24 13:52:19;;;;;;;4.75;1.00;;;;;;;;;;4981498;28;20027;-79
2023/11/24 13:54:44;;;;;;;4.45;0.98;;;;;;;;;;4976893;28;20027;-79
2023/11/24 13:57:09;;;;;;;9.07;1.40;;;;;;;;;;4972264;28;20055;-78
2023/11/24 13:59:35;;;;;;;3.10;0.65;;;;;;;;;;4966090;28;20035;-80
2023/11/24 14:02:00;;;;;;;4.38;0.55;;;;;;;;;;4949434;28;20046;-79
2023/11/24 14:04:26;;;;;;;3.15;0.60;;;;;;;;;;4962139;28;20552;-79
2023/11/24 14:06:51;;;;;;;6.05;1.23;;;;;;;;;;4964009;28;20467;-79
2023/11/24 14:09:17;;;;;;;4.53;1.00;;;;;;;;;;4964410;28;20405;-78
2023/11/24 14:11:43;;;;;;;6.05;0.98;;;;;;;;;;4966636;28;20027;-79
2023/11/24 14:14:08;;;;;;;5.70;1.08;;;;;;;;;;4965395;28;20043;-79
2023/11/24 14:16:33;;;;;;;3.78;0.80;;;;;;;;;;4964596;28;20034;-79
2023/11/24 14:18:59;;;;;;;4.50;0.70;;;;;;;;;;4966412;28;20027;-79
2023/11/24 14:21:24;;;;;;;3.83;0.70;;;;;;;;;;4961370;28;20487;-79
2023/11/24 14:23:49;;;;;;;5.60;1.20;;;;;;;;;;4967531;28;20039;-78
2023/11/24 14:26:15;;;;;;;5.90;1.42;;;;;;;;;;4968197;28;20043;-79
2023/11/24 14:28:41;;;;;;;3.45;1.13;;;;;;;;;;4962770;28;20035;-79
2023/11/24 14:31:06;;;;;;;7.45;1.00;;;;;;;;;;4965715;28;20026;-79
2023/11/24 14:33:33;;;;;;;5.32;1.10;;;;;;;;;;4962139;28;20030;-79
2023/11/24 14:36:00;;;;;;;4.85;1.10;;;;;;;;;;4966368;28;20047;-79
2023/11/24 14:38:29;;;;;;;4.45;1.10;;;;;;;;;;4963624;28;20039;-79
2023/11/24 14:41:04;;;;;;;6.55;0.93;;;;;;;;;;4967042;28;20035;-79
2023/11/24 14:43:29;;;;;;;7.35;1.20;;;;;;;;;;4966142;28;20092;-79
2023/11/24 14:45:54;;;;;;;1.73;0.77;;;;;;;;;;4966285;28;20027;-79
2023/11/24 14:48:20;;;;;;;3.65;1.00;;;;;;;;;;4967063;28;20050;-79
2023/11/24 14:50:45;;;;;;;3.20;0.73;;;;;;;;;;4967325;28;20031;-79
2023/11/24 14:53:13;;;;;;;2.53;0.65;;;;;;;;;;4966150;28;20028;-79
2023/11/24 14:55:39;;;;;;;5.13;1.20;;;;;;;;;;4963825;28;20038;-79
2023/11/24 14:58:04;;;;;;;7.70;1.30;;;;;;;;;;4966946;28;20039;-79
2023/11/24 15:00:30;;;;;;;5.18;1.20;;;;;;;;;;4961146;28;20600;-80
2023/11/24 15:03:04;;;;;;;5.68;1.50;;;;;;;;;;4955303;28;20495;-81
2023/11/24 15:05:38;;;;;;;6.25;1.52;;;;;;;;;;4965075;28;20047;-78
2023/11/24 15:08:08;;;;;;;5.75;1.85;;;;;;;;;;4963422;28;20039;-79
2023/11/24 15:10:33;;;;;;;4.85;1.20;;;;;;;;;;4965180;28;20035;-79